createdAt,value
2022-08-25T00:00:53.313Z,21.19
2022-08-25T00:03:23.036Z,21.22
2022-08-25T00:05:52.861Z,21.25
2022-08-25T00:08:25.191Z,21.24
2022-08-25T00:11:00.345Z,21.19
2022-08-25T00:13:33.429Z,20.94
2022-08-25T00:16:03.804Z,20.94
2022-08-25T00:18:33.693Z,20.92
2022-08-25T00:21:03.414Z,20.86
2022-08-25T00:23:36.276Z,20.92
2022-08-25T00:26:06.057Z,20.64
2022-08-25T00:28:36.911Z,20.84
2022-08-25T00:31:07.606Z,20.73
2022-08-25T00:33:37.534Z,20.68
2022-08-25T00:36:07.738Z,20.57
2022-08-25T00:38:40.037Z,20.60
2022-08-25T00:41:11.509Z,20.62
2022-08-25T00:43:49.380Z,20.38
2022-08-25T00:46:22.693Z,20.35
2022-08-25T00:48:57.221Z,20.45
2022-08-25T00:51:33.516Z,20.33
2022-08-25T00:54:07.599Z,20.35
2022-08-25T00:56:37.696Z,20.44
2022-08-25T00:59:08.442Z,20.41
2022-08-25T01:01:38.708Z,20.48
2022-08-25T01:04:08.606Z,20.44
2022-08-25T01:06:42.002Z,20.42
2022-08-25T01:09:16.399Z,20.34
2022-08-25T01:11:47.919Z,20.34
2022-08-25T01:14:20.803Z,20.33
2022-08-25T01:16:53.916Z,20.43
2022-08-25T01:19:24.406Z,20.26
2022-08-25T01:21:57.464Z,20.36
2022-08-25T01:24:34.266Z,20.33
2022-08-25T01:27:04.115Z,20.19
2022-08-25T01:29:36.212Z,20.26
2022-08-25T01:32:09.478Z,20.08
2022-08-25T01:34:46.461Z,20.13
2022-08-25T01:37:20.717Z,20.14
2022-08-25T01:39:50.564Z,20.08
2022-08-25T01:42:35.766Z,20.17
2022-08-25T01:45:05.654Z,20.25
2022-08-25T01:47:35.719Z,20.22
2022-08-25T01:50:05.464Z,20.13
2022-08-25T01:52:48.144Z,19.99
2022-08-25T01:55:18.143Z,19.89
2022-08-25T01:57:47.817Z,19.81
2022-08-25T02:00:20.181Z,19.85
2022-08-25T02:02:52.227Z,19.63
2022-08-25T02:05:24.025Z,19.35
2022-08-25T02:07:56.336Z,19.22
2022-08-25T02:10:26.067Z,19.38
2022-08-25T02:12:55.867Z,19.54
2022-08-25T02:15:25.954Z,19.61
2022-08-25T02:17:55.650Z,19.36
2022-08-25T02:20:25.712Z,19.36
2022-08-25T02:22:58.767Z,19.51
2022-08-25T02:25:28.778Z,19.52
2022-08-25T02:27:58.730Z,19.40
2022-08-25T02:30:29.601Z,19.49
2022-08-25T02:32:59.475Z,19.28
2022-08-25T02:35:29.836Z,19.12
2022-08-25T02:38:02.167Z,19.14
2022-08-25T02:40:31.921Z,19.13
2022-08-25T02:43:02.370Z,19.09
2022-08-25T02:45:32.644Z,19.06
2022-08-25T02:48:02.876Z,18.95
2022-08-25T02:50:32.801Z,19.12
2022-08-25T02:53:05.259Z,19.17
2022-08-25T02:55:34.956Z,18.95
2022-08-25T02:58:04.820Z,18.90
2022-08-25T03:00:34.711Z,18.80
2022-08-25T03:03:05.051Z,18.69
2022-08-25T03:05:34.778Z,18.63
2022-08-25T03:08:08.040Z,18.71
2022-08-25T03:10:38.295Z,18.68
2022-08-25T03:13:08.452Z,18.76
2022-08-25T03:15:42.362Z,18.77
2022-08-25T03:18:14.355Z,19.01
2022-08-25T03:20:45.916Z,19.04
2022-08-25T03:23:18.276Z,19.14
2022-08-25T03:26:01.880Z,19.09
2022-08-25T03:28:33.321Z,19.13
2022-08-25T03:31:03.724Z,18.96
2022-08-25T03:33:34.437Z,19.00
2022-08-25T03:36:04.154Z,18.97
2022-08-25T03:38:38.476Z,18.98
2022-08-25T03:41:16.223Z,18.96
2022-08-25T03:43:48.177Z,18.75
2022-08-25T03:46:23.246Z,18.71
2022-08-25T03:48:53.329Z,18.71
2022-08-25T03:51:25.267Z,18.86
2022-08-25T03:53:58.405Z,18.77
2022-08-25T03:56:28.234Z,18.70
2022-08-25T03:58:58.330Z,18.52
2022-08-25T04:01:28.554Z,18.40
2022-08-25T04:03:59.015Z,18.42
2022-08-25T04:06:28.698Z,18.63
2022-08-25T04:09:01.378Z,18.66
2022-08-25T04:11:31.185Z,18.52
2022-08-25T04:14:02.539Z,18.53
2022-08-25T04:16:34.809Z,18.58
2022-08-25T04:19:09.073Z,18.48
2022-08-25T04:21:39.673Z,18.49
2022-08-25T04:24:14.369Z,18.45
2022-08-25T04:26:48.113Z,18.51
2022-08-25T04:29:20.139Z,18.64
2022-08-25T04:31:54.148Z,18.73
2022-08-25T04:34:30.401Z,18.63
2022-08-25T04:37:03.419Z,18.56
2022-08-25T04:39:36.192Z,18.50
2022-08-25T04:42:06.594Z,18.52
2022-08-25T04:44:36.324Z,18.46
2022-08-25T04:47:06.125Z,18.41
2022-08-25T04:49:36.042Z,18.52
2022-08-25T04:52:06.049Z,18.55
2022-08-25T04:54:45.398Z,18.62
2022-08-25T04:57:15.429Z,18.54
2022-08-25T04:59:45.165Z,18.47
2022-08-25T05:02:15.590Z,18.41
2022-08-25T05:04:45.363Z,18.45
2022-08-25T05:07:15.131Z,18.45
2022-08-25T05:09:47.542Z,18.46
2022-08-25T05:12:17.285Z,18.51
2022-08-25T05:14:48.659Z,18.43
2022-08-25T05:17:18.387Z,18.40
2022-08-25T05:19:48.375Z,18.37
2022-08-25T05:22:18.402Z,18.35
2022-08-25T05:24:51.197Z,18.38
2022-08-25T05:27:21.016Z,18.33
2022-08-25T05:29:50.832Z,18.32
2022-08-25T05:32:20.650Z,18.41
2022-08-25T05:34:50.413Z,18.28
2022-08-25T05:37:20.118Z,18.35
2022-08-25T05:39:54.747Z,18.62
2022-08-25T05:42:25.186Z,18.84
2022-08-25T05:44:55.246Z,18.80
2022-08-25T05:47:25.284Z,18.67
2022-08-25T05:49:55.312Z,18.71
2022-08-25T05:52:26.519Z,18.81
2022-08-25T05:54:58.930Z,19.02
2022-08-25T05:57:28.872Z,18.93
2022-08-25T05:59:58.653Z,18.87
2022-08-25T06:02:40.861Z,18.88
2022-08-25T06:05:11.187Z,19.03
2022-08-25T06:07:41.068Z,19.02
2022-08-25T06:10:14.615Z,19.15
2022-08-25T06:12:48.596Z,19.33
2022-08-25T06:15:21.225Z,19.39
2022-08-25T06:17:51.784Z,19.45
2022-08-25T06:20:25.462Z,19.55
2022-08-25T06:22:56.463Z,19.48
2022-08-25T06:25:32.853Z,19.64
2022-08-25T06:28:02.553Z,19.83
2022-08-25T06:30:32.323Z,19.89
2022-08-25T06:33:02.079Z,20.05
2022-08-25T06:35:31.694Z,20.09
2022-08-25T06:38:04.508Z,20.31
2022-08-25T06:40:36.833Z,20.58
2022-08-25T06:43:09.060Z,20.70
2022-08-25T06:45:38.771Z,20.92
2022-08-25T06:48:08.774Z,21.06
2022-08-25T06:50:40.681Z,21.11
2022-08-25T06:53:10.696Z,21.23
2022-08-25T06:55:43.120Z,21.73
2022-08-25T06:58:13.051Z,21.91
2022-08-25T07:00:43.949Z,22.18
2022-08-25T07:03:13.866Z,22.44
2022-08-25T07:05:44.176Z,22.69
2022-08-25T07:08:14.017Z,22.83
2022-08-25T07:10:48.178Z,22.78
2022-08-25T07:13:18.864Z,23.01
2022-08-25T07:15:48.667Z,23.35
2022-08-25T07:18:18.996Z,23.52
2022-08-25T07:20:49.430Z,23.68
2022-08-25T07:23:19.138Z,23.80
2022-08-25T07:25:51.612Z,23.86
2022-08-25T07:28:22.268Z,24.00
2022-08-25T07:30:53.158Z,24.08
2022-08-25T07:33:22.815Z,24.13
2022-08-25T07:35:49.849Z,24.16
2022-08-25T07:38:21.460Z,24.21
2022-08-25T07:40:57.096Z,24.67
2022-08-25T07:43:26.976Z,24.78
2022-08-25T07:45:56.807Z,24.82
2022-08-25T07:48:26.423Z,24.87
2022-08-25T07:50:56.844Z,25.09
2022-08-25T07:53:26.754Z,25.22
2022-08-25T07:56:00.363Z,25.59
2022-08-25T07:58:33.188Z,25.68
2022-08-25T08:01:04.505Z,25.72
2022-08-25T08:03:50.273Z,25.88
2022-08-25T08:06:23.606Z,26.01
2022-08-25T08:08:57.819Z,26.03
2022-08-25T08:11:33.276Z,26.07
2022-08-25T08:14:04.553Z,26.00
2022-08-25T08:16:35.097Z,25.94
2022-08-25T08:19:06.298Z,25.98
2022-08-25T08:21:38.045Z,26.12
2022-08-25T08:24:19.558Z,26.29
2022-08-25T08:27:01.360Z,26.28
2022-08-25T08:29:31.584Z,26.39
2022-08-25T08:32:03.204Z,26.35
2022-08-25T08:34:34.169Z,26.44
2022-08-25T08:37:04.626Z,26.35
2022-08-25T08:39:34.325Z,26.33
2022-08-25T08:42:22.516Z,26.38
2022-08-25T08:45:25.332Z,26.33
2022-08-25T08:48:13.697Z,26.41
2022-08-25T08:50:53.846Z,26.52
2022-08-25T08:53:32.165Z,26.68
2022-08-25T08:56:12.423Z,26.66
2022-08-25T08:58:49.891Z,26.71
2022-08-25T09:01:27.545Z,26.90
2022-08-25T09:04:02.766Z,27.06
2022-08-25T09:06:38.063Z,27.19
2022-08-25T09:09:11.447Z,27.17
2022-08-25T09:11:54.452Z,27.12
2022-08-25T09:14:41.350Z,27.20
2022-08-25T09:17:24.836Z,27.39
2022-08-25T09:20:24.408Z,27.40
2022-08-25T09:23:01.413Z,27.53
2022-08-25T09:25:54.120Z,27.83
2022-08-25T09:28:28.784Z,27.61
2022-08-25T09:31:03.374Z,27.85
2022-08-25T09:33:35.991Z,27.73
2022-08-25T09:36:09.025Z,27.84
2022-08-25T09:38:40.177Z,27.81
2022-08-25T09:41:11.763Z,27.86
2022-08-25T09:43:45.788Z,28.03
2022-08-25T09:46:21.005Z,28.00
2022-08-25T09:48:56.925Z,28.04
2022-08-25T09:51:31.332Z,28.20
2022-08-25T09:54:25.668Z,28.32
2022-08-25T09:57:32.353Z,28.40
2022-08-25T10:00:15.117Z,28.31
2022-08-25T10:03:05.970Z,28.46
2022-08-25T10:05:40.362Z,28.32
2022-08-25T10:08:16.410Z,28.55
2022-08-25T10:10:58.338Z,28.38
2022-08-25T10:13:38.918Z,28.38
2022-08-25T10:16:20.513Z,28.44
2022-08-25T10:19:15.718Z,28.47
2022-08-25T10:21:46.482Z,28.53
2022-08-25T10:24:17.205Z,28.58
2022-08-25T10:26:58.777Z,28.65
2022-08-25T10:29:54.551Z,28.83
2022-08-25T10:32:34.227Z,28.88
2022-08-25T10:35:15.263Z,28.94
2022-08-25T10:38:21.967Z,29.13
2022-08-25T10:41:00.483Z,29.17
2022-08-25T10:43:38.683Z,29.29
2022-08-25T10:46:18.725Z,29.55
2022-08-25T10:49:02.211Z,29.54
2022-08-25T10:51:50.952Z,29.62
2022-08-25T10:54:33.852Z,29.76
2022-08-25T10:57:14.365Z,29.87
2022-08-25T10:59:53.695Z,29.80
2022-08-25T11:03:03.143Z,30.00
2022-08-25T11:05:41.239Z,30.15
2022-08-25T11:08:21.280Z,30.14
2022-08-25T11:10:55.871Z,30.14
2022-08-25T11:13:35.657Z,30.12
2022-08-25T11:16:17.381Z,30.50
2022-08-25T11:18:56.118Z,30.76
2022-08-25T11:21:31.844Z,30.84
2022-08-25T11:24:19.421Z,30.65
2022-08-25T11:26:56.631Z,30.71
2022-08-25T11:29:33.820Z,30.91
2022-08-25T11:32:04.362Z,31.06
2022-08-25T11:34:36.468Z,31.25
2022-08-25T11:37:24.194Z,31.33
2022-08-25T11:40:11.905Z,31.45
2022-08-25T11:42:55.930Z,31.66
2022-08-25T11:45:40.677Z,31.60
2022-08-25T11:48:21.043Z,31.29
2022-08-25T11:51:10.783Z,30.93
2022-08-25T11:53:42.944Z,31.03
2022-08-25T11:56:34.752Z,31.19
2022-08-25T11:59:05.514Z,31.28
2022-08-25T12:02:03.271Z,31.25
2022-08-25T12:04:44.535Z,31.47
2022-08-25T12:07:30.670Z,31.58
2022-08-25T12:10:22.795Z,31.56
2022-08-25T12:13:26.943Z,31.11
2022-08-25T12:16:01.576Z,31.27
2022-08-25T12:18:46.499Z,31.18
2022-08-25T12:21:33.541Z,30.93
2022-08-25T12:24:18.355Z,30.33
2022-08-25T12:26:55.658Z,30.01
2022-08-25T12:29:36.375Z,29.62
2022-08-25T12:32:28.285Z,29.63
2022-08-25T12:35:20.254Z,30.07
2022-08-25T12:38:00.472Z,30.22
2022-08-25T12:40:34.719Z,30.22
2022-08-25T12:43:09.766Z,30.38
2022-08-25T12:45:53.882Z,30.33
2022-08-25T12:48:46.451Z,30.66
2022-08-25T12:51:21.987Z,30.78
2022-08-25T12:53:54.772Z,30.75
2022-08-25T12:56:37.523Z,30.91
2022-08-25T12:59:18.255Z,31.06
2022-08-25T13:02:26.445Z,30.90
2022-08-25T13:05:33.735Z,30.84
2022-08-25T13:08:34.013Z,30.66
2022-08-25T13:11:14.003Z,30.78
2022-08-25T13:13:51.621Z,30.66
2022-08-25T13:16:29.711Z,30.79
2022-08-25T13:19:08.213Z,30.53
2022-08-25T13:21:40.792Z,30.33
2022-08-25T13:24:17.386Z,30.38
2022-08-25T13:26:48.969Z,30.49
2022-08-25T13:29:22.835Z,30.54
2022-08-25T13:31:58.673Z,30.63
2022-08-25T13:34:34.889Z,30.71
2022-08-25T13:37:22.920Z,30.77
2022-08-25T13:39:56.064Z,30.83
2022-08-25T13:42:29.000Z,30.68
2022-08-25T13:44:59.356Z,30.55
2022-08-25T13:47:45.423Z,30.53
2022-08-25T13:50:38.119Z,30.44
2022-08-25T13:53:11.371Z,30.51
2022-08-25T13:55:52.174Z,30.59
2022-08-25T13:58:32.535Z,30.47
2022-08-25T14:01:23.659Z,30.67
2022-08-25T14:04:32.709Z,30.44
2022-08-25T14:07:19.383Z,30.50
2022-08-25T14:09:52.507Z,30.38
2022-08-25T14:12:47.884Z,30.46
2022-08-25T14:15:33.985Z,30.44
2022-08-25T14:18:07.521Z,30.35
2022-08-25T14:20:39.224Z,30.15
2022-08-25T14:23:19.054Z,30.19
2022-08-25T14:25:49.667Z,30.10
2022-08-25T14:28:23.936Z,30.00
2022-08-25T14:30:59.485Z,30.03
2022-08-25T14:33:32.886Z,30.13
2022-08-25T14:36:06.316Z,30.12
2022-08-25T14:38:41.182Z,30.05
2022-08-25T14:41:13.992Z,29.95
2022-08-25T14:43:45.460Z,29.91
2022-08-25T14:46:21.339Z,29.97
2022-08-25T14:48:56.743Z,29.97
2022-08-25T14:51:28.546Z,30.05
2022-08-25T14:54:04.761Z,30.02
2022-08-25T14:56:35.479Z,29.99
2022-08-25T14:59:06.517Z,30.04
2022-08-25T15:01:38.008Z,29.66
2022-08-25T15:04:11.766Z,29.86
2022-08-25T15:06:44.994Z,29.96
2022-08-25T15:09:16.718Z,30.01
2022-08-25T15:11:50.716Z,29.99
2022-08-25T15:14:29.033Z,29.99
2022-08-25T15:17:04.511Z,29.90
2022-08-25T15:19:37.577Z,29.85
2022-08-25T15:22:07.433Z,29.85
2022-08-25T15:24:42.509Z,29.91
2022-08-25T15:27:12.231Z,29.81
2022-08-25T15:29:42.200Z,29.77
2022-08-25T15:32:12.608Z,29.66
2022-08-25T15:34:45.488Z,29.69
2022-08-25T15:37:18.941Z,29.67
2022-08-25T15:39:51.445Z,29.77
2022-08-25T15:42:21.674Z,29.66
2022-08-25T15:44:53.073Z,29.43
2022-08-25T15:47:24.227Z,29.46
2022-08-25T15:50:03.277Z,29.41
2022-08-25T15:52:46.036Z,29.36
2022-08-25T15:55:20.960Z,29.33
2022-08-25T15:57:51.167Z,29.26
2022-08-25T16:00:22.112Z,29.26
2022-08-25T16:02:51.790Z,29.17
2022-08-25T16:05:25.683Z,29.20
2022-08-25T16:07:55.854Z,29.19
2022-08-25T16:10:28.215Z,29.07
2022-08-25T16:12:58.058Z,29.01
2022-08-25T16:15:28.690Z,28.96
2022-08-25T16:17:58.886Z,29.00
2022-08-25T16:20:28.703Z,28.84
2022-08-25T16:23:00.868Z,28.92
2022-08-25T16:25:36.257Z,28.76
2022-08-25T16:28:06.763Z,28.87
2022-08-25T16:30:36.747Z,28.77
2022-08-25T16:33:07.017Z,28.66
2022-08-25T16:35:40.587Z,28.58
2022-08-25T16:38:10.397Z,28.49
2022-08-25T16:40:46.071Z,28.41
2022-08-25T16:43:17.796Z,28.33
2022-08-25T16:45:47.461Z,28.36
2022-08-25T16:48:17.151Z,28.31
2022-08-25T16:50:47.789Z,28.37
2022-08-25T16:53:45.555Z,28.20
2022-08-25T16:56:24.739Z,28.09
2022-08-25T16:58:59.540Z,27.97
2022-08-25T17:01:30.482Z,27.95
2022-08-25T17:04:01.436Z,27.97
2022-08-25T17:06:33.222Z,27.98
2022-08-25T17:09:02.869Z,28.03
2022-08-25T17:11:40.265Z,27.90
2022-08-25T17:14:11.151Z,27.81
2022-08-25T17:16:41.171Z,27.81
2022-08-25T17:19:12.848Z,27.73
2022-08-25T17:21:46.100Z,27.83
2022-08-25T17:24:17.269Z,27.80
2022-08-25T17:26:50.736Z,27.70
2022-08-25T17:29:21.099Z,27.63
2022-08-25T17:31:51.677Z,27.56
2022-08-25T17:34:23.370Z,27.55
2022-08-25T17:36:54.648Z,27.51
2022-08-25T17:39:25.903Z,27.41
2022-08-25T17:41:58.832Z,27.37
2022-08-25T17:44:29.226Z,27.32
2022-08-25T17:46:59.925Z,27.20
2022-08-25T17:49:30.105Z,27.07
2022-08-25T17:51:59.874Z,27.01
2022-08-25T17:54:29.553Z,26.89
2022-08-25T17:57:01.862Z,26.81
2022-08-25T17:59:32.426Z,26.71
2022-08-25T18:02:02.427Z,26.61
2022-08-25T18:04:32.315Z,26.48
2022-08-25T18:07:02.016Z,26.38
2022-08-25T18:09:31.721Z,26.33
2022-08-25T18:12:04.087Z,26.29
2022-08-25T18:14:33.850Z,26.24
2022-08-25T18:17:04.455Z,26.21
2022-08-25T18:19:34.583Z,26.19
2022-08-25T18:22:06.308Z,26.08
2022-08-25T18:24:36.499Z,26.03
2022-08-25T18:27:09.019Z,25.94
2022-08-25T18:29:38.890Z,25.87
2022-08-25T18:32:12.453Z,25.82
2022-08-25T18:34:42.238Z,25.77
2022-08-25T18:37:24.683Z,25.70
2022-08-25T18:40:07.183Z,25.62
2022-08-25T18:42:39.517Z,25.55
2022-08-25T18:45:12.791Z,25.55
2022-08-25T18:47:42.690Z,25.44
2022-08-25T18:50:12.715Z,25.40
2022-08-25T18:52:43.234Z,25.33
2022-08-25T18:55:13.077Z,25.31
2022-08-25T18:57:45.461Z,25.24
2022-08-25T19:00:18.925Z,25.21
2022-08-25T19:02:49.328Z,25.17
2022-08-25T19:05:20.616Z,25.05
2022-08-25T19:07:51.828Z,25.04
2022-08-25T19:10:24.090Z,24.99
2022-08-25T19:12:57.247Z,24.94
2022-08-25T19:15:28.489Z,24.85
2022-08-25T19:17:59.319Z,24.81
2022-08-25T19:20:30.960Z,24.78
2022-08-25T19:23:01.114Z,24.73
2022-08-25T19:25:33.113Z,24.72
2022-08-25T19:28:08.229Z,24.69
2022-08-25T19:30:49.918Z,24.66
2022-08-25T19:33:42.718Z,24.61
2022-08-25T19:36:11.832Z,24.64
2022-08-25T19:38:41.834Z,24.63
2022-08-25T19:41:14.658Z,24.59
2022-08-25T19:43:56.172Z,24.48
2022-08-25T19:46:33.030Z,24.47
2022-08-25T19:49:07.936Z,24.42
2022-08-25T19:51:39.253Z,24.34
2022-08-25T19:54:10.434Z,24.28
2022-08-25T19:56:43.912Z,24.16
2022-08-25T19:59:42.391Z,24.21
2022-08-25T20:02:15.476Z,24.31
2022-08-25T20:04:49.452Z,24.37
2022-08-25T20:07:21.321Z,24.38
2022-08-25T20:09:51.070Z,24.40
2022-08-25T20:12:21.619Z,24.41
2022-08-25T20:14:54.806Z,24.30
2022-08-25T20:17:26.155Z,24.28
2022-08-25T20:19:58.084Z,24.12
2022-08-25T20:22:29.453Z,23.97
2022-08-25T20:24:58.582Z,23.98
2022-08-25T20:27:33.804Z,23.94
2022-08-25T20:30:16.629Z,23.93
2022-08-25T20:32:47.367Z,24.03
2022-08-25T20:35:17.673Z,23.97
2022-08-25T20:37:49.085Z,23.88
2022-08-25T20:40:26.168Z,23.86
2022-08-25T20:42:56.419Z,23.93
2022-08-25T20:45:28.873Z,23.95
2022-08-25T20:47:58.597Z,23.88
2022-08-25T20:50:28.731Z,23.85
2022-08-25T20:52:58.926Z,23.81
2022-08-25T20:55:30.648Z,23.85
2022-08-25T20:58:00.397Z,23.79
2022-08-25T21:00:32.688Z,23.75
2022-08-25T21:03:05.790Z,23.76
2022-08-25T21:05:37.055Z,23.79
2022-08-25T21:08:07.135Z,23.59
2022-08-25T21:10:37.028Z,23.59
2022-08-25T21:13:07.082Z,23.66
2022-08-25T21:15:40.634Z,23.68
2022-08-25T21:18:10.478Z,23.66
2022-08-25T21:20:41.601Z,23.66
2022-08-25T21:23:11.294Z,23.62
2022-08-25T21:25:42.329Z,23.55
2022-08-25T21:28:12.066Z,23.50
2022-08-25T21:30:47.420Z,23.49
2022-08-25T21:33:17.272Z,23.41
2022-08-25T21:35:48.502Z,23.28
2022-08-25T21:38:19.062Z,23.21
2022-08-25T21:40:48.723Z,23.16
2022-08-25T21:43:18.735Z,23.20
2022-08-25T21:45:51.129Z,23.25
2022-08-25T21:48:21.789Z,23.12
2022-08-25T21:50:51.518Z,23.05
2022-08-25T21:53:21.133Z,23.13
2022-08-25T21:55:50.858Z,23.13
2022-08-25T21:58:20.682Z,23.00
2022-08-25T22:00:53.165Z,23.27
2022-08-25T22:03:23.209Z,23.23
2022-08-25T22:05:52.998Z,23.18
2022-08-25T22:08:22.735Z,23.27
2022-08-25T22:11:00.768Z,23.16
2022-08-25T22:13:30.927Z,23.09
2022-08-25T22:16:03.262Z,23.13
2022-08-25T22:18:33.110Z,23.14
2022-08-25T22:21:08.646Z,22.96
2022-08-25T22:23:44.145Z,22.97
2022-08-25T22:26:15.925Z,22.99
2022-08-25T22:28:50.624Z,22.99
2022-08-25T22:31:23.013Z,22.92
2022-08-25T22:33:53.810Z,22.97
2022-08-25T22:36:28.567Z,22.95
2022-08-25T22:38:59.169Z,22.92
2022-08-25T22:41:31.668Z,22.92
2022-08-25T22:44:04.860Z,22.94
2022-08-25T22:46:37.674Z,22.88
2022-08-25T22:49:08.419Z,22.78
2022-08-25T22:51:39.077Z,22.72
2022-08-25T22:54:09.642Z,22.72
2022-08-25T22:56:40.185Z,22.65
2022-08-25T22:59:12.780Z,22.70
2022-08-25T23:01:47.274Z,22.73
2022-08-25T23:04:17.727Z,22.72
2022-08-25T23:06:49.072Z,22.69
2022-08-25T23:09:18.916Z,22.52
2022-08-25T23:11:51.331Z,22.50
2022-08-25T23:14:21.821Z,22.33
2022-08-25T23:16:54.384Z,22.44
2022-08-25T23:19:28.021Z,22.43
2022-08-25T23:22:10.857Z,22.39
2022-08-25T23:24:42.647Z,22.45
2022-08-25T23:27:15.667Z,22.48
2022-08-25T23:29:48.890Z,22.37
2022-08-25T23:32:21.463Z,22.41
2022-08-25T23:34:51.130Z,22.36
2022-08-25T23:37:20.856Z,22.35
2022-08-25T23:39:50.707Z,22.33
2022-08-25T23:42:21.603Z,22.36
2022-08-25T23:44:51.774Z,22.29
2022-08-25T23:47:24.087Z,22.27
2022-08-25T23:49:53.756Z,22.19
2022-08-25T23:52:24.065Z,22.25
2022-08-25T23:54:54.565Z,22.29
2022-08-25T23:57:24.278Z,22.23
2022-08-25T23:59:54.345Z,22.18
